Wetterdaten: aktuell Dienstag, 21.04.2015 09:48
Datum Zeit Temperatur Feuchte Luftdruck Regen Wind Richtung Richtung Taupunkt Windchill
21.04.2015 09:48 13,8 C 70 % 1030,0 hPa 0,0 l/m 0,0 km/h (0 Bft) W 260 8,4 C 13,8 C
21.04.2015 08:48 9,0 C 78 % 1030,4 hPa 0,0 l/m 0,0 km/h (0 Bft) N 355 5,4 C 9,0 C
21.04.2015 07:48 7,2 C 78 % 1029,5 hPa 0,0 l/m 0,0 km/h (0 Bft) N 360 3,6 C 7,2 C
21.04.2015 06:48 6,5 C 76 % 1029,6 hPa 0,0 l/m 14,3 km/h (3 Bft) N45 10 2,6 C 3,7 C
21.04.2015 05:48 6,2 C 72 % 1029,6 hPa 0,0 l/m 4,2 km/h (1 Bft) NW 325 1,5 C 6,2 C
21.04.2015 04:48 6,8 C 69 % 1029,5 hPa 0,0 l/m 2,8 km/h (1 Bft) W-SW 240 1,5 C 6,8 C
21.04.2015 03:39 8,6 C 67 % 1029,4 hPa 0,0 l/m 9,4 km/h (2 Bft) N22.5 355 2,8 C 7,1 C
21.04.2015 02:39 8,5 C 66 % 1028,4 hPa 0,0 l/m 6,3 km/h (2 Bft) N 350 2,5 C 7,7 C
21.04.2015 01:39 9,0 C 64 % 1028,3 hPa 0,0 l/m 5,6 km/h (1 Bft) NW 325 2,6 C 8,4 C
21.04.2015 00:39 9,6 C 63 % 1028,3 hPa 0,0 l/m 0,4 km/h (0 Bft) W 260 2,9 C 9,6 C
20.04.2015 23:39 10,8 C 64 % 1028,2 hPa 0,0 l/m 17,9 km/h (3 Bft) N67.5 360 4,3 C 10,8 C
20.04.2015 22:39 11,7 C 57 % 1028,1 hPa 0,0 l/m 10,1 km/h (2 Bft) N-NW 335 3,5 C 11,7 C
20.04.2015 21:39 13,6 C 52 % 1026,9 hPa 0,0 l/m 14,4 km/h (3 Bft) N-NW45 340 3,9 C 13,6 C
20.04.2015 20:39 14,3 C 50 % 1026,8 hPa 0,0 l/m 9,2 km/h (2 Bft) N-NW22.5 340 4,0 C 14,3 C
20.04.2015 19:39 15,6 C 46 % 1026,7 hPa 0,0 l/m 18,3 km/h (3 Bft) N22.5 350 4,0 C 15,6 C
20.04.2015 18:30 17,2 C 43 % 1026,6 hPa 0,0 l/m 22,2 km/h (4 Bft) N-NW45 335 4,5 C 17,2 C
20.04.2015 17:30 17,6 C 39 % 1026,6 hPa 0,0 l/m 22,8 km/h (4 Bft) N 360 3,5 C 17,6 C
20.04.2015 16:30 18,5 C 36 % 1026,5 hPa 0,0 l/m 24,4 km/h (4 Bft) NW 325 3,2 C 18,5 C
20.04.2015 15:30 17,8 C 38 % 1026,5 hPa 0,0 l/m 29,9 km/h (5 Bft) N-NW45 335 3,3 C 17,8 C
20.04.2015 14:30 17,3 C 36 % 1026,6 hPa 0,0 l/m 34,1 km/h (5 Bft) N-NW22.5 345 2,1 C 17,3 C
20.04.2015 13:30 16,7 C 44 % 1026,6 hPa 0,0 l/m 28,1 km/h (4 Bft) N-NW22.5 340 4,4 C 16,7 C
20.04.2015 12:30 16,1 C 46 % 1027,7 hPa 0,0 l/m 21,3 km/h (4 Bft) N-NW22.5 340 4,5 C 16,1 C
20.04.2015 11:30 15,4 C 49 % 1026,7 hPa 0,0 l/m 15,6 km/h (3 Bft) N-NW22.5 345 4,7 C 15,4 C
20.04.2015 10:30 14,8 C 48 % 1026,8 hPa 0,0 l/m 14,1 km/h (3 Bft) N67.5 0 3,9 C 14,8 C
20.04.2015 10:00 13,4 C 54 % 1026,9 hPa 0,0 l/m 10,8 km/h (2 Bft) N22.5 350 4,3 C 13,4 C
_ Min-Zeit 05:45 14:12 17:39 - 00:42 - - 04:51 06:15
Minimum _ 6,2 C 36 % 1025,5 hPa - 0,0 km/h (0 Bft) - - 1,4 C 3,5 C
_ Max-Zeit 15:57 07:24 07:51 10:00 17:21 - - 09:48 15:57
Maximum _ 18,8 C 79 % 1030,5 hPa 0,0 l/m 36,2 km/h
N-NW (5 Bft)
- - 8,4 C 18,8 C
Durchschnitt _ 12,6 C 56 % 1027,8 hPa #0,0 l/m 13,9 km/h (3 Bft) N-NW - 3,7 C 12,3 C